Main page

Covington, Kentucky, United States

Cincinnati/Northern Kentucky International Airport

latitude: 39-02-35N, longitude: 084-40-18W, elevation: 895 ft

Current weather observation

The report was made 34 minutes ago, at 11:52 UTC
Wind 9 mph from the Northeast
Temperature 52°F
Humidity 82%
Pressure 30.17 in. Hg
Visibility: 10 miles
Few clouds at a height of 9000 ft
Scattered clouds at a height of 25000 ft

METAR: KCVG 101152Z 05008KT 10SM FEW090 SCT250 11/08 A3017 RMK AO2 SLP214 T01060078 10128 20106 50005

Time: 08:26 (12:26 UTC)


The report was made 58 minutes ago, at 11:28 UTC
Forecast valid from 10 at 12 UTC to 11 at 18 UTC
Wind 7 mph from the North
Visibility: 6 miles
Scattered clouds at a height of 25000 ft
From 11 at 0000 UTC
Wind 3 mph from variable directions
Visibility: 6 miles
Few clouds at a height of 25000 ft
From 11 at 1300 UTC
Wind 8 mph from the Southwest
Visibility: 6 miles
Clear sky

TAF: KCVG 101128Z 1012/1118 01006KT P6SM SCT250 FM110000 VRB03KT P6SM FEW250 FM111300 22007KT P6SM SKC


Weather observations and forecasts of more than 4000 airports (METAR and TAF reports).

The available stations are represented by yellow and red dots on the map.

Hover mouse over dot to see the name of the station.

Then click to see weather observations and forecasts.

To change the map : click on the green buttons with a black cross to zoom in, on the green button with a dash to zoom out, or on the green arrows for adjacent maps.